sensor_id;sensor_type;location;lat;lon;timestamp;P1;durP1;ratioP1;P2;durP2;ratioP2
1651;SDS011;823;49.028;8.454;2022-12-07T00:04:54;17.03;;;7.90;;
1651;SDS011;823;49.028;8.454;2022-12-07T00:09:54;19.67;;;7.72;;
1651;SDS011;823;49.028;8.454;2022-12-07T00:14:54;23.83;;;9.52;;
1651;SDS011;823;49.028;8.454;2022-12-07T00:19:55;15.75;;;7.82;;
1651;SDS011;823;49.028;8.454;2022-12-07T00:24:55;19.00;;;7.78;;
1651;SDS011;823;49.028;8.454;2022-12-07T00:29:55;17.17;;;8.13;;
1651;SDS011;823;49.028;8.454;2022-12-07T00:34:55;18.95;;;8.40;;
1651;SDS011;823;49.028;8.454;2022-12-07T00:39:56;14.15;;;8.05;;
1651;SDS011;823;49.028;8.454;2022-12-07T00:44:56;17.98;;;8.35;;
1651;SDS011;823;49.028;8.454;2022-12-07T00:49:57;19.40;;;7.50;;
1651;SDS011;823;49.028;8.454;2022-12-07T00:54:57;22.23;;;9.37;;
1651;SDS011;823;49.028;8.454;2022-12-07T00:59:57;16.00;;;8.80;;
1651;SDS011;823;49.028;8.454;2022-12-07T01:04:58;22.53;;;9.57;;
1651;SDS011;823;49.028;8.454;2022-12-07T01:09:58;20.50;;;9.00;;
1651;SDS011;823;49.028;8.454;2022-12-07T01:14:58;21.98;;;8.95;;
1651;SDS011;823;49.028;8.454;2022-12-07T01:19:59;20.23;;;9.02;;
1651;SDS011;823;49.028;8.454;2022-12-07T01:24:59;23.47;;;9.70;;
1651;SDS011;823;49.028;8.454;2022-12-07T01:30:00;21.30;;;11.67;;
1651;SDS011;823;49.028;8.454;2022-12-07T01:35:00;19.17;;;8.50;;
1651;SDS011;823;49.028;8.454;2022-12-07T01:40:01;21.45;;;9.15;;
1651;SDS011;823;49.028;8.454;2022-12-07T01:50:35;22.53;;;9.60;;
1651;SDS011;823;49.028;8.454;2022-12-07T01:55:38;26.40;;;10.00;;
1651;SDS011;823;49.028;8.454;2022-12-07T02:00:42;23.07;;;9.37;;
1651;SDS011;823;49.028;8.454;2022-12-07T02:05:42;26.77;;;11.40;;
1651;SDS011;823;49.028;8.454;2022-12-07T02:10:43;26.80;;;11.73;;
1651;SDS011;823;49.028;8.454;2022-12-07T02:15:51;21.50;;;10.17;;
1651;SDS011;823;49.028;8.454;2022-12-07T02:21:00;23.57;;;11.70;;
1651;SDS011;823;49.028;8.454;2022-12-07T02:32:23;21.50;;;10.40;;
1651;SDS011;823;49.028;8.454;2022-12-07T02:37:35;22.30;;;10.23;;
1651;SDS011;823;49.028;8.454;2022-12-07T02:42:46;18.90;;;9.23;;
1651;SDS011;823;49.028;8.454;2022-12-07T02:47:51;24.90;;;9.90;;
1651;SDS011;823;49.028;8.454;2022-12-07T02:52:53;27.20;;;11.80;;
1651;SDS011;823;49.028;8.454;2022-12-07T03:03:09;27.17;;;11.37;;
1651;SDS011;823;49.028;8.454;2022-12-07T03:18:56;24.33;;;9.97;;
1651;SDS011;823;49.028;8.454;2022-12-07T03:24:02;24.43;;;11.13;;
1651;SDS011;823;49.028;8.454;2022-12-07T03:29:08;26.23;;;10.20;;
1651;SDS011;823;49.028;8.454;2022-12-07T03:34:29;26.50;;;10.20;;
1651;SDS011;823;49.028;8.454;2022-12-07T03:39:37;26.30;;;10.00;;
1651;SDS011;823;49.028;8.454;2022-12-07T03:44:43;17.60;;;9.30;;
1651;SDS011;823;49.028;8.454;2022-12-07T03:49:51;21.37;;;9.10;;
1651;SDS011;823;49.028;8.454;2022-12-07T03:55:39;22.07;;;9.40;;
1651;SDS011;823;49.028;8.454;2022-12-07T04:00:29;18.80;;;9.20;;
1651;SDS011;823;49.028;8.454;2022-12-07T04:05:31;24.60;;;9.60;;
1651;SDS011;823;49.028;8.454;2022-12-07T04:10:31;25.30;;;10.20;;
1651;SDS011;823;49.028;8.454;2022-12-07T04:15:31;22.00;;;10.47;;
1651;SDS011;823;49.028;8.454;2022-12-07T04:20:32;18.33;;;9.23;;
1651;SDS011;823;49.028;8.454;2022-12-07T04:25:32;22.83;;;9.90;;
1651;SDS011;823;49.028;8.454;2022-12-07T04:30:32;20.42;;;9.73;;
1651;SDS011;823;49.028;8.454;2022-12-07T04:35:33;21.57;;;11.03;;
1651;SDS011;823;49.028;8.454;2022-12-07T04:40:33;29.30;;;10.40;;
1651;SDS011;823;49.028;8.454;2022-12-07T04:45:34;19.73;;;10.37;;
1651;SDS011;823;49.028;8.454;2022-12-07T04:50:35;20.00;;;10.20;;
1651;SDS011;823;49.028;8.454;2022-12-07T04:55:38;21.77;;;10.27;;
1651;SDS011;823;49.028;8.454;2022-12-07T05:00:38;25.23;;;10.57;;
1651;SDS011;823;49.028;8.454;2022-12-07T05:05:40;19.63;;;8.83;;
1651;SDS011;823;49.028;8.454;2022-12-07T05:10:41;21.10;;;11.10;;
1651;SDS011;823;49.028;8.454;2022-12-07T05:15:42;24.77;;;10.13;;
1651;SDS011;823;49.028;8.454;2022-12-07T05:20:43;23.40;;;10.07;;
1651;SDS011;823;49.028;8.454;2022-12-07T05:25:44;24.67;;;10.93;;
1651;SDS011;823;49.028;8.454;2022-12-07T05:30:45;24.70;;;11.10;;
1651;SDS011;823;49.028;8.454;2022-12-07T05:35:45;24.10;;;10.80;;
1651;SDS011;823;49.028;8.454;2022-12-07T05:40:45;20.60;;;9.55;;
1651;SDS011;823;49.028;8.454;2022-12-07T05:45:46;23.33;;;9.88;;
1651;SDS011;823;49.028;8.454;2022-12-07T05:50:49;25.27;;;10.18;;
1651;SDS011;823;49.028;8.454;2022-12-07T05:55:50;28.87;;;11.57;;
1651;SDS011;823;49.028;8.454;2022-12-07T06:00:53;25.53;;;9.90;;
1651;SDS011;823;49.028;8.454;2022-12-07T06:05:54;19.53;;;8.73;;
1651;SDS011;823;49.028;8.454;2022-12-07T06:10:55;21.75;;;9.70;;
1651;SDS011;823;49.028;8.454;2022-12-07T06:16:15;27.63;;;9.47;;
1651;SDS011;823;49.028;8.454;2022-12-07T06:21:15;27.80;;;10.67;;
1651;SDS011;823;49.028;8.454;2022-12-07T06:26:15;26.03;;;10.93;;
1651;SDS011;823;49.028;8.454;2022-12-07T06:31:16;35.93;;;10.63;;
1651;SDS011;823;49.028;8.454;2022-12-07T06:36:16;28.33;;;11.20;;
1651;SDS011;823;49.028;8.454;2022-12-07T06:41:17;23.40;;;9.57;;
1651;SDS011;823;49.028;8.454;2022-12-07T06:46:17;21.77;;;10.37;;
1651;SDS011;823;49.028;8.454;2022-12-07T06:51:18;24.70;;;9.93;;
1651;SDS011;823;49.028;8.454;2022-12-07T06:56:18;32.83;;;10.67;;
1651;SDS011;823;49.028;8.454;2022-12-07T07:01:19;21.13;;;8.30;;
1651;SDS011;823;49.028;8.454;2022-12-07T07:06:19;18.70;;;9.13;;
1651;SDS011;823;49.028;8.454;2022-12-07T07:11:19;23.10;;;9.13;;
1651;SDS011;823;49.028;8.454;2022-12-07T07:16:20;25.90;;;9.83;;
1651;SDS011;823;49.028;8.454;2022-12-07T07:21:20;23.87;;;9.73;;
1651;SDS011;823;49.028;8.454;2022-12-07T07:26:20;30.60;;;11.80;;
1651;SDS011;823;49.028;8.454;2022-12-07T07:31:21;23.80;;;10.90;;
1651;SDS011;823;49.028;8.454;2022-12-07T07:36:21;28.80;;;11.87;;
1651;SDS011;823;49.028;8.454;2022-12-07T07:41:22;28.67;;;9.97;;
1651;SDS011;823;49.028;8.454;2022-12-07T07:46:22;19.67;;;9.33;;
1651;SDS011;823;49.028;8.454;2022-12-07T07:51:22;26.67;;;9.40;;
1651;SDS011;823;49.028;8.454;2022-12-07T07:56:23;22.17;;;9.77;;
1651;SDS011;823;49.028;8.454;2022-12-07T08:01:23;20.53;;;8.53;;
1651;SDS011;823;49.028;8.454;2022-12-07T08:06:23;25.27;;;10.57;;
1651;SDS011;823;49.028;8.454;2022-12-07T08:11:24;17.57;;;8.10;;
1651;SDS011;823;49.028;8.454;2022-12-07T08:16:24;21.60;;;8.73;;
1651;SDS011;823;49.028;8.454;2022-12-07T08:21:25;18.83;;;7.27;;
1651;SDS011;823;49.028;8.454;2022-12-07T08:26:25;20.10;;;8.77;;
1651;SDS011;823;49.028;8.454;2022-12-07T08:31:25;15.30;;;8.10;;
1651;SDS011;823;49.028;8.454;2022-12-07T08:36:27;20.43;;;8.53;;
1651;SDS011;823;49.028;8.454;2022-12-07T08:41:28;25.20;;;8.27;;
1651;SDS011;823;49.028;8.454;2022-12-07T08:51:33;17.60;;;7.40;;
1651;SDS011;823;49.028;8.454;2022-12-07T08:56:34;16.20;;;7.20;;
1651;SDS011;823;49.028;8.454;2022-12-07T09:01:34;17.27;;;8.50;;
1651;SDS011;823;49.028;8.454;2022-12-07T09:06:35;19.33;;;6.73;;
1651;SDS011;823;49.028;8.454;2022-12-07T09:11:35;12.97;;;6.30;;
1651;SDS011;823;49.028;8.454;2022-12-07T09:16:36;16.50;;;7.80;;
1651;SDS011;823;49.028;8.454;2022-12-07T09:21:36;15.70;;;7.00;;
1651;SDS011;823;49.028;8.454;2022-12-07T09:26:36;20.20;;;7.67;;
1651;SDS011;823;49.028;8.454;2022-12-07T09:31:39;20.67;;;8.27;;
1651;SDS011;823;49.028;8.454;2022-12-07T09:36:40;17.90;;;7.90;;
1651;SDS011;823;49.028;8.454;2022-12-07T09:41:41;177.20;;;14.70;;
1651;SDS011;823;49.028;8.454;2022-12-07T09:46:43;217.93;;;18.90;;
1651;SDS011;823;49.028;8.454;2022-12-07T09:51:45;23.30;;;7.77;;
1651;SDS011;823;49.028;8.454;2022-12-07T09:56:46;22.60;;;7.70;;
1651;SDS011;823;49.028;8.454;2022-12-07T10:01:50;20.33;;;7.80;;
1651;SDS011;823;49.028;8.454;2022-12-07T10:06:51;32.33;;;9.07;;
1651;SDS011;823;49.028;8.454;2022-12-07T10:11:59;18.30;;;7.80;;
1651;SDS011;823;49.028;8.454;2022-12-07T10:17:29;18.30;;;7.47;;
1651;SDS011;823;49.028;8.454;2022-12-07T10:28:14;12.83;;;7.13;;
1651;SDS011;823;49.028;8.454;2022-12-07T10:38:39;22.40;;;8.80;;
1651;SDS011;823;49.028;8.454;2022-12-07T10:43:47;21.67;;;7.83;;
1651;SDS011;823;49.028;8.454;2022-12-07T10:48:55;18.30;;;8.40;;
1651;SDS011;823;49.028;8.454;2022-12-07T11:15:37;18.13;;;7.90;;
1651;SDS011;823;49.028;8.454;2022-12-07T11:31:24;18.70;;;8.30;;
1651;SDS011;823;49.028;8.454;2022-12-07T11:36:49;15.73;;;8.13;;
1651;SDS011;823;49.028;8.454;2022-12-07T11:42:13;21.80;;;8.13;;
1651;SDS011;823;49.028;8.454;2022-12-07T11:57:57;16.70;;;7.83;;
1651;SDS011;823;49.028;8.454;2022-12-07T12:03:07;22.40;;;9.03;;
1651;SDS011;823;49.028;8.454;2022-12-07T12:08:16;17.50;;;8.43;;
1651;SDS011;823;49.028;8.454;2022-12-07T12:33:53;21.17;;;8.87;;
1651;SDS011;823;49.028;8.454;2022-12-07T12:43:59;19.27;;;8.40;;
1651;SDS011;823;49.028;8.454;2022-12-07T13:04:34;19.30;;;8.07;;
1651;SDS011;823;49.028;8.454;2022-12-07T13:09:41;21.60;;;8.70;;
1651;SDS011;823;49.028;8.454;2022-12-07T13:14:54;18.83;;;8.37;;
1651;SDS011;823;49.028;8.454;2022-12-07T13:25:09;22.47;;;9.53;;
1651;SDS011;823;49.028;8.454;2022-12-07T13:30:20;21.17;;;9.10;;
1651;SDS011;823;49.028;8.454;2022-12-07T13:40:33;21.83;;;9.00;;
1651;SDS011;823;49.028;8.454;2022-12-07T13:45:33;20.33;;;9.47;;
1651;SDS011;823;49.028;8.454;2022-12-07T13:50:56;24.20;;;9.77;;
1651;SDS011;823;49.028;8.454;2022-12-07T13:55:58;20.93;;;9.20;;
1651;SDS011;823;49.028;8.454;2022-12-07T14:01:00;20.43;;;8.37;;
1651;SDS011;823;49.028;8.454;2022-12-07T14:06:22;20.23;;;8.00;;
1651;SDS011;823;49.028;8.454;2022-12-07T14:11:28;18.07;;;8.77;;
1651;SDS011;823;49.028;8.454;2022-12-07T14:16:31;21.20;;;9.43;;
1651;SDS011;823;49.028;8.454;2022-12-07T14:21:34;16.37;;;7.70;;
1651;SDS011;823;49.028;8.454;2022-12-07T14:26:34;19.73;;;8.50;;
1651;SDS011;823;49.028;8.454;2022-12-07T14:31:35;18.80;;;7.20;;
1651;SDS011;823;49.028;8.454;2022-12-07T14:36:35;17.27;;;6.80;;
1651;SDS011;823;49.028;8.454;2022-12-07T14:41:35;20.13;;;8.38;;
1651;SDS011;823;49.028;8.454;2022-12-07T14:46:51;18.23;;;7.00;;
1651;SDS011;823;49.028;8.454;2022-12-07T14:51:51;17.27;;;7.07;;
1651;SDS011;823;49.028;8.454;2022-12-07T14:56:54;17.97;;;8.00;;
1651;SDS011;823;49.028;8.454;2022-12-07T15:01:54;13.80;;;6.80;;
1651;SDS011;823;49.028;8.454;2022-12-07T15:06:56;15.20;;;6.57;;
1651;SDS011;823;49.028;8.454;2022-12-07T15:12:00;13.17;;;7.10;;
1651;SDS011;823;49.028;8.454;2022-12-07T15:17:00;11.80;;;5.90;;
1651;SDS011;823;49.028;8.454;2022-12-07T15:22:01;12.07;;;5.75;;
1651;SDS011;823;49.028;8.454;2022-12-07T15:27:01;17.83;;;7.45;;
1651;SDS011;823;49.028;8.454;2022-12-07T15:32:02;16.03;;;7.40;;
1651;SDS011;823;49.028;8.454;2022-12-07T15:37:02;25.47;;;8.47;;
1651;SDS011;823;49.028;8.454;2022-12-07T15:42:03;30.93;;;9.10;;
1651;SDS011;823;49.028;8.454;2022-12-07T15:47:04;22.43;;;9.93;;
1651;SDS011;823;49.028;8.454;2022-12-07T15:52:04;21.80;;;8.03;;
1651;SDS011;823;49.028;8.454;2022-12-07T15:57:05;18.37;;;7.23;;
1651;SDS011;823;49.028;8.454;2022-12-07T16:02:05;22.80;;;8.50;;
1651;SDS011;823;49.028;8.454;2022-12-07T16:07:05;15.77;;;7.50;;
1651;SDS011;823;49.028;8.454;2022-12-07T16:12:06;22.90;;;7.93;;
1651;SDS011;823;49.028;8.454;2022-12-07T16:17:07;21.27;;;8.77;;
1651;SDS011;823;49.028;8.454;2022-12-07T16:22:08;24.57;;;9.53;;
1651;SDS011;823;49.028;8.454;2022-12-07T16:27:09;26.57;;;8.30;;
1651;SDS011;823;49.028;8.454;2022-12-07T16:32:09;24.80;;;8.97;;
1651;SDS011;823;49.028;8.454;2022-12-07T16:37:09;15.33;;;7.67;;
1651;SDS011;823;49.028;8.454;2022-12-07T16:42:10;20.30;;;7.90;;
1651;SDS011;823;49.028;8.454;2022-12-07T16:47:10;13.93;;;6.93;;
1651;SDS011;823;49.028;8.454;2022-12-07T16:52:10;19.92;;;7.40;;
1651;SDS011;823;49.028;8.454;2022-12-07T16:57:10;19.43;;;8.50;;
1651;SDS011;823;49.028;8.454;2022-12-07T17:02:11;34.70;;;12.30;;
1651;SDS011;823;49.028;8.454;2022-12-07T17:07:12;27.03;;;10.20;;
1651;SDS011;823;49.028;8.454;2022-12-07T17:12:12;20.17;;;8.97;;
1651;SDS011;823;49.028;8.454;2022-12-07T17:17:13;31.20;;;10.87;;
1651;SDS011;823;49.028;8.454;2022-12-07T17:22:13;23.13;;;10.25;;
1651;SDS011;823;49.028;8.454;2022-12-07T17:27:13;22.80;;;8.73;;
1651;SDS011;823;49.028;8.454;2022-12-07T17:32:14;20.75;;;8.50;;
1651;SDS011;823;49.028;8.454;2022-12-07T17:37:14;26.80;;;10.13;;
1651;SDS011;823;49.028;8.454;2022-12-07T17:42:14;26.67;;;8.80;;
1651;SDS011;823;49.028;8.454;2022-12-07T17:47:34;25.40;;;9.20;;
1651;SDS011;823;49.028;8.454;2022-12-07T17:52:38;30.30;;;9.20;;
1651;SDS011;823;49.028;8.454;2022-12-07T17:57:58;31.63;;;10.87;;
1651;SDS011;823;49.028;8.454;2022-12-07T18:02:58;19.73;;;10.45;;
1651;SDS011;823;49.028;8.454;2022-12-07T18:07:58;23.33;;;10.02;;
1651;SDS011;823;49.028;8.454;2022-12-07T18:12:59;21.43;;;9.57;;
1651;SDS011;823;49.028;8.454;2022-12-07T18:18:17;22.33;;;9.73;;
1651;SDS011;823;49.028;8.454;2022-12-07T18:23:18;21.07;;;9.10;;
1651;SDS011;823;49.028;8.454;2022-12-07T18:28:19;25.60;;;10.30;;
1651;SDS011;823;49.028;8.454;2022-12-07T18:33:20;22.33;;;10.27;;
1651;SDS011;823;49.028;8.454;2022-12-07T18:38:20;21.90;;;8.57;;
1651;SDS011;823;49.028;8.454;2022-12-07T18:43:21;22.13;;;9.03;;
1651;SDS011;823;49.028;8.454;2022-12-07T18:48:24;25.87;;;10.87;;
1651;SDS011;823;49.028;8.454;2022-12-07T18:53:24;30.80;;;12.30;;
1651;SDS011;823;49.028;8.454;2022-12-07T18:58:24;33.93;;;10.47;;
1651;SDS011;823;49.028;8.454;2022-12-07T19:03:25;22.70;;;9.57;;
1651;SDS011;823;49.028;8.454;2022-12-07T19:08:26;33.47;;;10.57;;
1651;SDS011;823;49.028;8.454;2022-12-07T19:13:26;28.33;;;10.40;;
1651;SDS011;823;49.028;8.454;2022-12-07T19:18:26;27.08;;;12.25;;
1651;SDS011;823;49.028;8.454;2022-12-07T19:23:27;22.52;;;9.70;;
1651;SDS011;823;49.028;8.454;2022-12-07T19:28:27;32.08;;;11.77;;
1651;SDS011;823;49.028;8.454;2022-12-07T19:33:27;32.25;;;10.05;;
1651;SDS011;823;49.028;8.454;2022-12-07T19:38:29;30.73;;;10.87;;
1651;SDS011;823;49.028;8.454;2022-12-07T19:43:31;31.30;;;11.57;;
1651;SDS011;823;49.028;8.454;2022-12-07T19:48:32;25.10;;;10.10;;
1651;SDS011;823;49.028;8.454;2022-12-07T19:53:32;27.63;;;11.40;;
1651;SDS011;823;49.028;8.454;2022-12-07T19:58:33;28.50;;;11.37;;
1651;SDS011;823;49.028;8.454;2022-12-07T20:03:33;37.90;;;11.57;;
1651;SDS011;823;49.028;8.454;2022-12-07T20:08:33;27.47;;;10.50;;
1651;SDS011;823;49.028;8.454;2022-12-07T20:13:34;22.00;;;10.27;;
1651;SDS011;823;49.028;8.454;2022-12-07T20:18:34;36.15;;;11.80;;
1651;SDS011;823;49.028;8.454;2022-12-07T20:23:34;28.23;;;12.20;;
1651;SDS011;823;49.028;8.454;2022-12-07T20:28:35;27.92;;;11.20;;
1651;SDS011;823;49.028;8.454;2022-12-07T20:33:35;25.27;;;11.00;;
1651;SDS011;823;49.028;8.454;2022-12-07T20:38:35;27.20;;;10.55;;
1651;SDS011;823;49.028;8.454;2022-12-07T20:43:36;39.43;;;11.30;;
1651;SDS011;823;49.028;8.454;2022-12-07T20:48:36;29.60;;;12.10;;
1651;SDS011;823;49.028;8.454;2022-12-07T20:53:36;30.55;;;13.60;;
1651;SDS011;823;49.028;8.454;2022-12-07T20:58:37;26.30;;;12.13;;
1651;SDS011;823;49.028;8.454;2022-12-07T21:03:37;31.15;;;12.75;;
1651;SDS011;823;49.028;8.454;2022-12-07T21:08:37;28.35;;;12.07;;
1651;SDS011;823;49.028;8.454;2022-12-07T21:13:38;33.20;;;12.13;;
1651;SDS011;823;49.028;8.454;2022-12-07T21:18:39;27.97;;;13.10;;
1651;SDS011;823;49.028;8.454;2022-12-07T21:23:40;30.83;;;12.40;;
1651;SDS011;823;49.028;8.454;2022-12-07T21:28:40;28.75;;;11.32;;
1651;SDS011;823;49.028;8.454;2022-12-07T21:33:41;30.20;;;10.73;;
1651;SDS011;823;49.028;8.454;2022-12-07T21:38:45;26.37;;;10.67;;
1651;SDS011;823;49.028;8.454;2022-12-07T21:43:46;32.63;;;10.93;;
1651;SDS011;823;49.028;8.454;2022-12-07T21:48:51;34.20;;;10.80;;
1651;SDS011;823;49.028;8.454;2022-12-07T21:53:53;33.90;;;11.57;;
1651;SDS011;823;49.028;8.454;2022-12-07T21:58:59;27.87;;;10.60;;
1651;SDS011;823;49.028;8.454;2022-12-07T22:04:05;35.97;;;14.00;;
1651;SDS011;823;49.028;8.454;2022-12-07T22:09:07;26.33;;;13.50;;
1651;SDS011;823;49.028;8.454;2022-12-07T22:14:08;32.70;;;13.23;;
1651;SDS011;823;49.028;8.454;2022-12-07T22:19:27;29.27;;;11.73;;
1651;SDS011;823;49.028;8.454;2022-12-07T22:24:27;33.73;;;12.90;;
1651;SDS011;823;49.028;8.454;2022-12-07T22:29:27;31.47;;;12.17;;
1651;SDS011;823;49.028;8.454;2022-12-07T22:34:28;30.87;;;10.20;;
1651;SDS011;823;49.028;8.454;2022-12-07T22:39:28;42.03;;;13.93;;
1651;SDS011;823;49.028;8.454;2022-12-07T22:44:28;40.77;;;11.87;;
1651;SDS011;823;49.028;8.454;2022-12-07T22:49:29;33.38;;;13.32;;
1651;SDS011;823;49.028;8.454;2022-12-07T22:54:29;45.85;;;13.80;;
1651;SDS011;823;49.028;8.454;2022-12-07T22:59:29;37.13;;;13.17;;
1651;SDS011;823;49.028;8.454;2022-12-07T23:04:30;42.70;;;14.05;;
1651;SDS011;823;49.028;8.454;2022-12-07T23:09:30;29.97;;;11.73;;
1651;SDS011;823;49.028;8.454;2022-12-07T23:14:31;38.38;;;12.35;;
1651;SDS011;823;49.028;8.454;2022-12-07T23:19:33;39.60;;;12.63;;
1651;SDS011;823;49.028;8.454;2022-12-07T23:24:34;35.57;;;12.93;;
1651;SDS011;823;49.028;8.454;2022-12-07T23:29:34;34.97;;;13.10;;
1651;SDS011;823;49.028;8.454;2022-12-07T23:34:35;40.30;;;12.70;;
1651;SDS011;823;49.028;8.454;2022-12-07T23:39:35;31.33;;;12.00;;
1651;SDS011;823;49.028;8.454;2022-12-07T23:44:35;50.17;;;14.63;;
1651;SDS011;823;49.028;8.454;2022-12-07T23:49:36;40.33;;;13.90;;
1651;SDS011;823;49.028;8.454;2022-12-07T23:54:36;38.97;;;12.57;;
1651;SDS011;823;49.028;8.454;2022-12-07T23:59:36;37.00;;;12.13;;
